TimeAKST,TemperatureF,Dew PointF,Humidity,Sea Level PressureIn,VisibilityMPH,Wind Direction,Wind SpeedMPH,Gust SpeedMPH,PrecipitationIn,Events,Conditions,WindDirDegrees,DateUTC
12:53 AM,-29.0,-36.0,69,29.91,10.0,Calm,Calm,-,N/A,,Scattered Clouds,0,2012-12-05 09:53:00
1:53 AM,-26.0,-32.1,73,29.92,8.0,Calm,Calm,-,N/A,Snow,Light Snow,0,2012-12-05 10:53:00
2:53 AM,-25.1,-31.0,74,29.92,10.0,Calm,Calm,-,N/A,,Mostly Cloudy,0,2012-12-05 11:53:00
3:53 AM,-24.0,-31.0,70,29.92,10.0,Calm,Calm,-,N/A,,Mostly Cloudy,0,2012-12-05 12:53:00
5:53 AM,-22.0,-27.0,77,29.92,6.0,Calm,Calm,-,N/A,Snow,Light Snow,0,2012-12-05 14:53:00
6:53 AM,-20.0,-27.9,67,29.92,4.0,Calm,Calm,-,N/A,Snow,Light Snow,0,2012-12-05 15:53:00
7:53 AM,-20.0,-26.0,74,29.93,5.0,Calm,Calm,-,N/A,Snow,Light Snow,0,2012-12-05 16:53:00
8:53 AM,-20.9,-27.9,70,29.93,6.0,Calm,Calm,-,N/A,Snow,Light Snow,0,2012-12-05 17:53:00
9:53 AM,-24.0,-29.9,74,29.93,7.0,Calm,Calm,-,N/A,Snow,Light Snow,0,2012-12-05 18:53:00
10:53 AM,-26.0,-33.0,69,29.94,10.0,Calm,Calm,-,N/A,,Scattered Clouds,0,2012-12-05 19:53:00
11:53 AM,-26.0,-33.0,69,29.94,10.0,Calm,Calm,-,N/A,Fog,Scattered Clouds,0,2012-12-05 20:53:00
12:53 PM,-26.0,-32.1,73,29.95,10.0,Calm,Calm,-,N/A,,Scattered Clouds,0,2012-12-05 21:53:00
1:53 PM,-26.0,-32.1,73,29.96,10.0,Calm,Calm,-,N/A,Fog,Scattered Clouds,0,2012-12-05 22:53:00
2:53 PM,-26.0,-31.0,77,29.96,10.0,Calm,Calm,-,N/A,,Scattered Clouds,0,2012-12-05 23:53:00
3:53 PM,-26.0,-33.0,69,29.96,10.0,Calm,Calm,-,N/A,,Scattered Clouds,0,2012-12-06 00:53:00
4:53 PM,-22.0,-29.0,70,29.96,6.0,Calm,Calm,-,N/A,,Scattered Clouds,0,2012-12-06 01:53:00
5:53 PM,-23.1,-29.0,74,29.95,6.0,Calm,Calm,-,N/A,,Scattered Clouds,0,2012-12-06 02:53:00
6:53 PM,-24.0,-29.9,74,29.95,7.0,Calm,Calm,-,N/A,,Mostly Cloudy,0,2012-12-06 03:53:00
7:53 PM,-22.0,-29.0,70,29.96,7.0,Calm,Calm,-,N/A,,Mostly Cloudy,0,2012-12-06 04:53:00
8:53 PM,-20.9,-27.0,73,29.96,7.0,Calm,Calm,-,N/A,,Mostly Cloudy,0,2012-12-06 05:53:00
9:53 PM,-18.9,-25.1,74,29.96,4.0,Calm,Calm,-,N/A,Snow,Light Snow,0,2012-12-06 06:53:00
10:53 PM,-18.0,-24.0,74,29.97,6.0,Calm,Calm,-,N/A,,Mostly Cloudy,0,2012-12-06 07:53:00
11:53 PM,-17.0,-23.1,74,29.97,10.0,Calm,Calm,-,N/A,,Mostly Cloudy,0,2012-12-06 08:53:00